Time;durP1;ratioP1;P1;durP2;ratioP2;P2;SDS_P1;SDS_P2;PMS_P1;PMS_P2;Temp;Humidity;BMP_temperature;BMP_pressure;BME280_temperature;BME280_humidity;BME280_pressure;Samples;Min_cycle;Max_cycle;Signal;HPM_P1;HPM_P2
2023/04/18 00:02:16;;;;;;;13.10;8.20;;;12.40;57.80;;;;;;5052845;28;20366;-63
2023/04/18 00:04:45;;;;;;;11.98;7.28;;;12.40;57.40;;;;;;5040384;28;20469;-63
2023/04/18 00:07:14;;;;;;;13.02;8.30;;;12.40;57.10;;;;;;5046797;28;20029;-63
2023/04/18 00:09:40;;;;;;;12.07;7.22;;;12.30;56.60;;;;;;5037992;28;20032;-64
2023/04/18 00:12:07;;;;;;;14.23;7.60;;;12.30;56.40;;;;;;5049085;28;20088;-63
2023/04/18 00:14:34;;;;;;;12.73;7.32;;;12.30;56.10;;;;;;5051580;28;20025;-63
2023/04/18 00:17:03;;;;;;;13.57;8.30;;;12.30;55.90;;;;;;5047326;28;20033;-62
2023/04/18 00:19:28;;;;;;;12.23;6.93;;;12.20;55.70;;;;;;5031475;28;20036;-62
2023/04/18 00:21:54;;;;;;;12.10;8.50;;;12.20;55.60;;;;;;5046685;28;20400;-62
2023/04/18 00:24:20;;;;;;;13.57;8.02;;;12.20;55.40;;;;;;5056506;28;20124;-62
2023/04/18 00:26:47;;;;;;;14.07;8.60;;;12.20;55.30;;;;;;5030313;28;20054;-63
2023/04/18 00:29:13;;;;;;;11.80;7.20;;;12.10;55.10;;;;;;5027046;28;20034;-62
2023/04/18 00:31:39;;;;;;;12.73;7.75;;;12.10;55.00;;;;;;5034980;28;20117;-63
2023/04/18 00:34:05;;;;;;;14.00;7.97;;;12.10;54.90;;;;;;5049430;28;20033;-63
2023/04/18 00:36:30;;;;;;;11.77;6.72;;;12.00;54.80;;;;;;5042282;28;20021;-63
2023/04/18 00:38:56;;;;;;;12.25;7.22;;;12.00;54.80;;;;;;5049142;28;20434;-62
2023/04/18 00:41:26;;;;;;;13.70;7.40;;;12.00;54.70;;;;;;5054330;28;20037;-62
2023/04/18 00:43:52;;;;;;;12.98;8.00;;;11.90;54.60;;;;;;5051574;28;20363;-63
2023/04/18 00:46:18;;;;;;;11.80;7.40;;;11.90;54.50;;;;;;5042586;28;20033;-63
2023/04/18 00:48:43;;;;;;;12.50;7.28;;;11.80;54.40;;;;;;5044791;28;20037;-63
2023/04/18 00:51:10;;;;;;;12.23;7.35;;;11.80;54.40;;;;;;5046010;28;20021;-62
2023/04/18 00:53:36;;;;;;;11.25;7.18;;;11.80;54.30;;;;;;5055461;28;20036;-63
2023/04/18 00:56:03;;;;;;;11.10;7.75;;;11.70;54.20;;;;;;5042769;28;20036;-63
2023/04/18 00:58:31;;;;;;;11.43;7.00;;;11.70;54.10;;;;;;5055575;28;20510;-63
2023/04/18 01:00:57;;;;;;;11.93;7.47;;;11.70;54.10;;;;;;5043470;28;20162;-63
2023/04/18 01:03:25;;;;;;;10.52;6.93;;;11.70;54.10;;;;;;5055087;28;20119;-62
2023/04/18 01:05:52;;;;;;;11.63;7.53;;;11.60;54.10;;;;;;5040092;28;20021;-62
2023/04/18 01:08:20;;;;;;;12.15;7.93;;;11.60;54.10;;;;;;5044039;28;20037;-62
2023/04/18 01:10:47;;;;;;;12.07;7.38;;;11.60;54.10;;;;;;5042304;28;20100;-62
2023/04/18 01:13:16;;;;;;;11.23;7.55;;;11.50;54.00;;;;;;5054938;28;20033;-63
2023/04/18 01:15:43;;;;;;;11.68;7.43;;;11.50;54.00;;;;;;5042035;28;20048;-62
2023/04/18 01:18:09;;;;;;;11.07;6.97;;;11.50;54.00;;;;;;5045414;28;20033;-63
2023/04/18 01:20:40;;;;;;;11.82;7.75;;;11.40;53.90;;;;;;5043227;28;20438;-62
2023/04/18 01:23:06;;;;;;;11.15;7.05;;;11.40;53.90;;;;;;5018845;28;20085;-62
2023/04/18 01:25:34;;;;;;;12.38;7.50;;;11.40;53.90;;;;;;5035043;28;20332;-62
2023/04/18 01:27:59;;;;;;;12.20;6.95;;;11.40;53.90;;;;;;5039335;28;20024;-63
2023/04/18 01:30:26;;;;;;;12.77;7.65;;;11.40;53.80;;;;;;5032503;28;20076;-62
2023/04/18 01:32:52;;;;;;;12.10;7.10;;;11.30;53.80;;;;;;5024044;28;20045;-62
2023/04/18 01:35:18;;;;;;;14.52;7.55;;;11.30;53.80;;;;;;5034487;28;20032;-62
2023/04/18 01:37:43;;;;;;;12.43;7.55;;;11.30;53.80;;;;;;5021345;28;20036;-62
2023/04/18 01:40:10;;;;;;;11.95;7.32;;;11.30;53.70;;;;;;5037166;28;20538;-63
2023/04/18 01:42:37;;;;;;;12.90;7.15;;;11.30;53.70;;;;;;5030582;28;20131;-62
2023/04/18 01:45:04;;;;;;;13.20;7.78;;;11.20;53.60;;;;;;5037963;28;20105;-62
2023/04/18 01:47:32;;;;;;;12.20;6.85;;;11.20;53.60;;;;;;5018531;28;20118;-62
2023/04/18 01:49:58;;;;;;;12.75;7.78;;;11.20;53.60;;;;;;5037578;28;20029;-62
2023/04/18 01:52:27;;;;;;;11.93;7.43;;;11.10;53.60;;;;;;5054291;28;20420;-63
2023/04/18 01:54:53;;;;;;;13.63;7.60;;;11.20;53.70;;;;;;5041786;28;20033;-62
2023/04/18 01:57:18;;;;;;;11.32;7.00;;;11.10;53.60;;;;;;5044372;28;20068;-62
2023/04/18 01:59:44;;;;;;;10.65;7.15;;;11.10;53.60;;;;;;5035884;28;20063;-62
2023/04/18 02:02:10;;;;;;;13.10;6.88;;;11.10;53.70;;;;;;5035876;28;20033;-62
2023/04/18 02:04:36;;;;;;;10.45;6.55;;;11.10;53.70;;;;;;5048902;28;20028;-62
2023/04/18 02:07:02;;;;;;;12.82;7.18;;;11.00;53.70;;;;;;5031598;28;20057;-62
2023/04/18 02:09:28;;;;;;;12.20;6.53;;;11.00;53.70;;;;;;5044905;28;20026;-63
2023/04/18 02:11:58;;;;;;;11.18;7.25;;;10.90;53.70;;;;;;5047121;28;20114;-62
2023/04/18 02:14:25;;;;;;;11.82;7.28;;;10.90;53.70;;;;;;5052933;28;20394;-63
2023/04/18 02:16:51;;;;;;;11.68;6.43;;;10.90;53.60;;;;;;5045256;28;20029;-62
2023/04/18 02:19:17;;;;;;;11.90;7.22;;;10.90;53.60;;;;;;5047707;28;20025;-62
2023/04/18 02:21:43;;;;;;;14.18;6.55;;;10.90;53.70;;;;;;5044377;28;20472;-62
2023/04/18 02:24:09;;;;;;;13.35;7.28;;;10.80;53.70;;;;;;5054420;28;20033;-63
2023/04/18 02:26:35;;;;;;;11.20;6.60;;;10.80;53.70;;;;;;5035393;28;20056;-63
2023/04/18 02:29:01;;;;;;;14.23;6.63;;;10.80;53.80;;;;;;5042386;28;20020;-63
2023/04/18 02:31:28;;;;;;;11.43;6.60;;;10.70;53.70;;;;;;5044206;28;20025;-63
2023/04/18 02:33:54;;;;;;;11.48;6.55;;;10.70;53.80;;;;;;5047949;28;20112;-63
2023/04/18 02:36:20;;;;;;;11.35;6.45;;;10.70;53.90;;;;;;5034546;28;20025;-64
2023/04/18 02:38:46;;;;;;;10.93;6.60;;;10.70;53.80;;;;;;5034922;28;20073;-62
2023/04/18 02:41:16;;;;;;;10.82;6.60;;;10.70;53.90;;;;;;5034622;28;20450;-63
2023/04/18 02:43:41;;;;;;;11.15;6.78;;;10.70;53.90;;;;;;5026565;28;20055;-63
2023/04/18 02:46:07;;;;;;;10.05;6.68;;;10.60;54.00;;;;;;5043119;28;20529;-63
2023/04/18 02:48:33;;;;;;;10.85;6.57;;;10.60;54.00;;;;;;5039561;28;20089;-63
2023/04/18 02:51:04;;;;;;;11.13;6.90;;;10.60;54.70;;;;;;5043683;28;20423;-63
2023/04/18 02:53:32;;;;;;;11.73;6.60;;;10.60;54.10;;;;;;5036722;28;20025;-62
2023/04/18 02:55:59;;;;;;;10.98;6.22;;;10.50;54.20;;;;;;5048729;28;20047;-62
2023/04/18 02:58:37;;;;;;;11.13;6.88;;;10.50;54.30;;;;;;5044441;28;20025;-62
2023/04/18 03:01:17;;;;;;;10.35;6.38;;;10.50;54.40;;;;;;5019419;28;20124;-62
2023/04/18 03:04:08;;;;;;;13.27;6.95;;;10.50;54.40;;;;;;5049452;28;20037;-62
2023/04/18 03:06:41;;;;;;;10.75;7.25;;;10.50;54.50;;;;;;5041084;28;20116;-63
2023/04/18 03:09:07;;;;;;;12.90;7.30;;;10.50;54.50;;;;;;5047106;28;20116;-62
2023/04/18 03:11:36;;;;;;;10.80;6.20;;;10.40;54.60;;;;;;5035156;28;20022;-62
2023/04/18 03:14:03;;;;;;;14.68;7.53;;;10.40;54.60;;;;;;5048554;28;20025;-62
2023/04/18 03:16:36;;;;;;;11.95;7.35;;;10.40;54.60;;;;;;5040252;28;20014;-62
2023/04/18 03:19:04;;;;;;;10.55;6.65;;;10.40;54.70;;;;;;5037318;28;20393;-62
2023/04/18 03:21:30;;;;;;;13.15;7.70;;;10.40;54.70;;;;;;5032497;28;20053;-62
2023/04/18 03:23:57;;;;;;;9.55;6.25;;;10.40;54.80;;;;;;5046644;28;20056;-62
2023/04/18 03:26:23;;;;;;;10.35;6.75;;;10.40;54.80;;;;;;5044195;28;20014;-62
2023/04/18 03:28:50;;;;;;;11.30;7.03;;;10.40;54.90;;;;;;5028498;28;20025;-62
2023/04/18 03:31:16;;;;;;;10.02;5.95;;;10.30;54.80;;;;;;5035389;28;20423;-62
2023/04/18 03:33:44;;;;;;;11.65;7.30;;;10.30;54.80;;;;;;5042405;28;20112;-62
2023/04/18 03:36:16;;;;;;;13.30;6.95;;;10.30;54.90;;;;;;5040206;28;20120;-62
2023/04/18 03:38:43;;;;;;;10.15;6.82;;;10.20;54.90;;;;;;5026046;28;20088;-62
2023/04/18 03:41:09;;;;;;;11.18;6.20;;;10.20;55.20;;;;;;5033817;28;20433;-62
2023/04/18 03:43:36;;;;;;;12.27;7.15;;;10.20;55.10;;;;;;5032354;28;20052;-62
2023/04/18 03:46:02;;;;;;;11.73;7.13;;;10.20;55.10;;;;;;5044004;28;20025;-62
2023/04/18 03:48:28;;;;;;;11.88;7.00;;;10.20;55.20;;;;;;5021463;28;20146;-62
2023/04/18 03:50:57;;;;;;;10.95;7.43;;;10.20;55.30;;;;;;5028659;28;20030;-62
2023/04/18 03:53:22;;;;;;;10.52;6.65;;;10.20;55.30;;;;;;5030930;28;20017;-62
2023/04/18 03:55:48;;;;;;;11.00;6.72;;;10.20;55.30;;;;;;5029382;28;20064;-62
2023/04/18 03:58:22;;;;;;;11.20;6.53;;;10.30;55.40;;;;;;5027865;28;20040;-62
2023/04/18 04:00:52;;;;;;;14.63;7.43;;;10.30;55.50;;;;;;5033843;28;20026;-62
2023/04/18 04:03:18;;;;;;;13.10;7.72;;;10.30;55.50;;;;;;5015552;28;20493;-62
2023/04/18 04:05:45;;;;;;;11.88;7.03;;;10.30;55.50;;;;;;5016312;28;20049;-62
2023/04/18 04:08:13;;;;;;;11.23;7.80;;;10.30;55.60;;;;;;5017986;28;20072;-62
2023/04/18 04:10:39;;;;;;;12.05;6.57;;;10.30;55.70;;;;;;5017925;28;20014;-62
2023/04/18 04:13:05;;;;;;;13.40;7.60;;;10.30;55.70;;;;;;5000543;28;20116;-62
2023/04/18 04:15:37;;;;;;;10.95;7.57;;;10.30;55.80;;;;;;4999732;28;20148;-62
2023/04/18 04:18:05;;;;;;;11.10;7.40;;;10.30;55.90;;;;;;5027960;28;20041;-62
2023/04/18 04:20:34;;;;;;;11.80;7.57;;;10.30;55.90;;;;;;5029267;28;20181;-62
2023/04/18 04:23:09;;;;;;;12.32;7.47;;;10.30;56.00;;;;;;5029745;28;20091;-62
2023/04/18 04:25:37;;;;;;;11.23;7.75;;;10.30;56.00;;;;;;5043509;28;20026;-63
2023/04/18 04:28:09;;;;;;;11.30;7.20;;;10.30;56.10;;;;;;5027716;28;20064;-63
2023/04/18 04:30:45;;;;;;;11.30;7.35;;;10.40;56.20;;;;;;5033987;28;20023;-63
2023/04/18 04:33:11;;;;;;;13.95;8.02;;;10.30;56.20;;;;;;5022682;28;20493;-63
2023/04/18 04:35:37;;;;;;;11.00;7.10;;;10.30;56.30;;;;;;5036561;28;20119;-63
2023/04/18 04:38:04;;;;;;;12.60;7.88;;;10.30;56.40;;;;;;5039226;28;20125;-63
2023/04/18 04:40:38;;;;;;;12.52;7.20;;;10.30;56.50;;;;;;5045255;28;20017;-63
2023/04/18 04:43:11;;;;;;;13.65;8.25;;;10.30;56.70;;;;;;5038078;28;20028;-63
2023/04/18 04:45:41;;;;;;;11.90;7.90;;;10.30;56.70;;;;;;5053707;28;20454;-63
2023/04/18 04:48:07;;;;;;;11.80;7.18;;;10.30;56.80;;;;;;5048428;28;20113;-63
2023/04/18 04:50:36;;;;;;;13.35;8.18;;;10.30;56.80;;;;;;5049181;28;20052;-63
2023/04/18 04:53:03;;;;;;;12.57;7.47;;;10.30;56.90;;;;;;5014852;28;20021;-63
2023/04/18 04:55:29;;;;;;;13.25;7.70;;;10.40;57.00;;;;;;5032434;28;20358;-63
2023/04/18 04:57:54;;;;;;;13.98;7.80;;;10.40;57.10;;;;;;5035795;28;20033;-64
2023/04/18 05:00:40;;;;;;;12.57;8.02;;;10.30;57.00;;;;;;5041213;28;20365;-64
2023/04/18 05:03:07;;;;;;;13.90;7.78;;;10.40;57.20;;;;;;5042458;28;20100;-63
2023/04/18 05:05:32;;;;;;;11.32;8.02;;;10.40;57.20;;;;;;5038702;28;20013;-64
2023/04/18 05:07:58;;;;;;;12.10;7.13;;;10.40;57.20;;;;;;5050792;28;20076;-64
2023/04/18 05:10:24;;;;;;;12.70;7.90;;;10.40;57.30;;;;;;5042270;28;20038;-63
2023/04/18 05:12:50;;;;;;;13.45;8.25;;;10.40;57.40;;;;;;5041498;28;20041;-63
2023/04/18 05:15:17;;;;;;;11.60;8.02;;;10.40;57.50;;;;;;5045047;28;20033;-63
2023/04/18 05:17:43;;;;;;;13.95;8.43;;;10.40;57.50;;;;;;5056166;28;20033;-63
2023/04/18 05:20:10;;;;;;;12.43;7.75;;;10.40;57.50;;;;;;5056105;28;20040;-63
2023/04/18 05:22:36;;;;;;;12.32;8.20;;;10.40;57.60;;;;;;5055978;28;20041;-63
2023/04/18 05:25:01;;;;;;;11.38;7.43;;;10.40;57.70;;;;;;5048178;28;20048;-63
2023/04/18 05:27:27;;;;;;;14.00;8.02;;;10.40;57.70;;;;;;5038478;28;20108;-64
2023/04/18 05:29:53;;;;;;;13.95;8.13;;;10.40;57.80;;;;;;5037064;28;20434;-63
2023/04/18 05:32:20;;;;;;;12.52;8.10;;;10.50;57.90;;;;;;5054612;28;20025;-63
2023/04/18 05:34:46;;;;;;;11.80;7.85;;;10.50;57.90;;;;;;5049018;28;20041;-64
2023/04/18 05:37:11;;;;;;;11.02;7.75;;;10.40;57.90;;;;;;5044891;28;20033;-64
2023/04/18 05:39:39;;;;;;;12.63;8.40;;;10.50;58.10;;;;;;5040765;28;20327;-63
2023/04/18 05:42:05;;;;;;;14.50;8.73;;;10.50;58.10;;;;;;5025777;28;20373;-64
2023/04/18 05:44:30;;;;;;;13.57;7.82;;;10.50;58.20;;;;;;5039510;28;20033;-64
2023/04/18 05:46:56;;;;;;;13.75;7.95;;;10.60;58.50;;;;;;5037429;28;20020;-64
2023/04/18 05:49:22;;;;;;;15.18;8.18;;;10.70;58.60;;;;;;5034425;28;20034;-64
2023/04/18 05:51:48;;;;;;;11.48;7.30;;;10.70;58.50;;;;;;5021822;28;20362;-64
2023/04/18 05:54:20;;;;;;;11.88;7.32;;;10.80;58.50;;;;;;5030832;28;20131;-63
2023/04/18 05:56:46;;;;;;;13.38;8.05;;;10.90;58.50;;;;;;5031033;28;20033;-64
2023/04/18 05:59:12;;;;;;;13.40;8.38;;;10.90;58.50;;;;;;5033335;28;20029;-64
2023/04/18 06:01:38;;;;;;;13.23;8.23;;;10.90;58.50;;;;;;5034280;28;20044;-63
2023/04/18 06:04:04;;;;;;;12.88;7.65;;;11.00;58.50;;;;;;5028010;28;20021;-64
2023/04/18 06:06:30;;;;;;;13.10;7.65;;;10.90;58.40;;;;;;5040067;28;20021;-64
2023/04/18 06:08:56;;;;;;;14.13;8.45;;;10.90;58.50;;;;;;5045314;28;20057;-64
2023/04/18 06:11:21;;;;;;;12.95;7.93;;;10.90;58.50;;;;;;5033280;28;20391;-64
2023/04/18 06:13:47;;;;;;;12.20;7.65;;;11.00;58.60;;;;;;5039393;28;20136;-64
2023/04/18 06:16:13;;;;;;;11.77;7.30;;;11.00;58.60;;;;;;5032501;28;20473;-64
2023/04/18 06:18:39;;;;;;;13.82;7.57;;;11.00;58.60;;;;;;5034177;28;20123;-64
2023/04/18 06:21:05;;;;;;;13.68;8.02;;;11.20;58.50;;;;;;5035735;28;20071;-64
2023/04/18 06:23:31;;;;;;;10.77;6.65;;;11.80;57.80;;;;;;5045738;28;20048;-64
2023/04/18 06:25:57;;;;;;;11.98;6.82;;;12.30;56.90;;;;;;5033099;28;20029;-64
2023/04/18 06:28:23;;;;;;;13.63;6.93;;;12.40;56.50;;;;;;5038361;28;20176;-64
2023/04/18 06:30:49;;;;;;;10.98;6.93;;;12.40;56.60;;;;;;5035216;28;20116;-64
2023/04/18 06:33:15;;;;;;;10.45;6.32;;;12.30;56.80;;;;;;5044991;28;20124;-64
2023/04/18 06:35:41;;;;;;;11.27;6.72;;;12.20;57.10;;;;;;5049662;28;20362;-63
2023/04/18 06:38:07;;;;;;;11.45;6.63;;;12.10;57.20;;;;;;5051139;28;20365;-66
2023/04/18 06:40:33;;;;;;;14.15;6.90;;;12.10;57.30;;;;;;5038344;28;20042;-64
2023/04/18 06:42:59;;;;;;;10.82;6.70;;;12.00;57.40;;;;;;5036259;28;20036;-63
2023/04/18 06:45:24;;;;;;;11.40;6.82;;;12.00;57.60;;;;;;5041213;28;20435;-63
2023/04/18 06:47:51;;;;;;;10.38;6.15;;;11.90;57.60;;;;;;5034411;28;20038;-63
2023/04/18 06:50:17;;;;;;;10.52;5.90;;;11.90;57.80;;;;;;5031964;28;20391;-63
2023/04/18 06:52:44;;;;;;;11.40;6.85;;;11.80;57.90;;;;;;5037247;28;20033;-64
2023/04/18 06:55:11;;;;;;;10.98;6.43;;;11.80;58.00;;;;;;5043768;28;20025;-63
2023/04/18 06:57:39;;;;;;;10.40;6.35;;;11.90;58.00;;;;;;5045181;28;20029;-64
2023/04/18 07:00:06;;;;;;;9.80;5.45;;;11.90;57.90;;;;;;5042729;28;20040;-64
2023/04/18 07:02:33;;;;;;;9.23;5.45;;;12.10;57.70;;;;;;5036922;28;20446;-64
2023/04/18 07:04:59;;;;;;;10.43;5.63;;;12.30;57.30;;;;;;5041410;28;20033;-64
2023/04/18 07:07:25;;;;;;;9.80;5.70;;;12.30;57.20;;;;;;5050889;28;20032;-63
2023/04/18 07:09:51;;;;;;;11.15;6.32;;;12.60;57.10;;;;;;5035810;28;20086;-64
2023/04/18 07:12:17;;;;;;;8.88;5.13;;;12.90;56.70;;;;;;5053638;28;20374;-63
2023/04/18 07:14:43;;;;;;;9.27;5.40;;;13.20;56.40;;;;;;5045230;28;20017;-64
2023/04/18 07:17:09;;;;;;;9.52;5.15;;;13.50;55.90;;;;;;5050772;28;20397;-63
2023/04/18 07:19:34;;;;;;;9.57;5.25;;;13.70;55.40;;;;;;5034803;28;20040;-64
2023/04/18 07:22:00;;;;;;;8.77;4.97;;;13.80;55.20;;;;;;5048728;28;20116;-64
2023/04/18 07:24:26;;;;;;;10.63;5.40;;;14.00;55.10;;;;;;5046960;28;20041;-64
2023/04/18 07:26:52;;;;;;;8.82;5.00;;;14.10;54.70;;;;;;5046834;28;20028;-64
2023/04/18 07:29:18;;;;;;;8.75;5.55;;;14.40;54.30;;;;;;5040230;28;20032;-64
2023/04/18 07:31:47;;;;;;;8.23;4.85;;;14.60;54.00;;;;;;5040147;28;20052;-65
2023/04/18 07:34:13;;;;;;;9.90;5.07;;;14.70;53.60;;;;;;5039135;28;20026;-65
2023/04/18 07:36:40;;;;;;;8.00;4.63;;;14.80;53.40;;;;;;5037588;28;20430;-65
2023/04/18 07:39:06;;;;;;;8.98;4.78;;;14.70;53.30;;;;;;5046266;28;20037;-65
2023/04/18 07:41:33;;;;;;;9.10;4.75;;;14.80;53.40;;;;;;5034728;28;20036;-65
2023/04/18 07:44:00;;;;;;;9.77;4.57;;;15.00;53.10;;;;;;5050647;28;20072;-65
2023/04/18 07:46:25;;;;;;;9.13;5.45;;;15.20;52.70;;;;;;5034042;28;20033;-65
2023/04/18 07:48:51;;;;;;;7.90;4.40;;;15.30;52.50;;;;;;5050767;28;20032;-64
2023/04/18 07:51:17;;;;;;;8.77;4.78;;;15.40;52.40;;;;;;5033543;28;20086;-65
2023/04/18 07:53:43;;;;;;;8.88;5.18;;;15.60;52.20;;;;;;5041436;28;20030;-65
2023/04/18 07:56:11;;;;;;;8.15;4.63;;;15.80;51.90;;;;;;5049993;28;20491;-65
2023/04/18 07:58:37;;;;;;;12.35;5.63;;;15.80;51.70;;;;;;5052999;28;20442;-65
2023/04/18 08:01:03;;;;;;;8.65;5.25;;;15.80;51.60;;;;;;5035705;28;20029;-65
2023/04/18 08:03:29;;;;;;;9.15;5.43;;;15.90;51.40;;;;;;5046373;28;20112;-65
2023/04/18 08:05:54;;;;;;;7.78;4.30;;;16.10;51.10;;;;;;5030976;28;20104;-65
2023/04/18 08:08:20;;;;;;;9.55;5.28;;;16.20;50.90;;;;;;5046539;28;20032;-65
2023/04/18 08:10:46;;;;;;;8.65;4.88;;;16.20;50.70;;;;;;5044147;28;20029;-64
2023/04/18 08:13:12;;;;;;;9.20;4.88;;;16.10;50.70;;;;;;5052534;28;20528;-64
2023/04/18 08:15:39;;;;;;;10.68;5.78;;;15.80;50.90;;;;;;5054657;28;20025;-64
2023/04/18 08:18:05;;;;;;;9.52;5.68;;;15.70;51.20;;;;;;5029752;28;20358;-64
2023/04/18 08:20:31;;;;;;;10.10;5.70;;;15.40;51.60;;;;;;5045711;28;20034;-65
2023/04/18 08:22:56;;;;;;;8.18;4.72;;;15.30;51.80;;;;;;5034930;28;20041;-64
2023/04/18 08:25:22;;;;;;;8.32;5.03;;;15.40;51.90;;;;;;5044250;28;20037;-65
2023/04/18 08:27:48;;;;;;;8.63;4.80;;;15.50;51.80;;;;;;5036744;28;20033;-64
2023/04/18 08:30:14;;;;;;;7.57;4.45;;;15.50;51.80;;;;;;5048741;28;20087;-64
2023/04/18 08:32:40;;;;;;;8.32;4.93;;;15.30;51.90;;;;;;5041177;28;20077;-64
2023/04/18 08:35:06;;;;;;;7.60;4.50;;;15.00;52.20;;;;;;5039382;28;20025;-64
2023/04/18 08:37:34;;;;;;;10.70;5.32;;;14.80;52.70;;;;;;5056876;28;20037;-64
2023/04/18 08:40:04;;;;;;;8.68;5.15;;;14.50;53.00;;;;;;5055912;28;20468;-64
2023/04/18 08:42:30;;;;;;;7.95;4.30;;;14.40;53.40;;;;;;5037134;28;20041;-64
2023/04/18 08:44:58;;;;;;;8.57;4.47;;;14.30;53.70;;;;;;5051801;28;20029;-64
2023/04/18 08:47:27;;;;;;;8.70;4.88;;;14.20;53.80;;;;;;5055575;28;20315;-64
2023/04/18 08:49:54;;;;;;;8.27;5.07;;;14.30;54.00;;;;;;5043124;28;20352;-64
2023/04/18 08:52:22;;;;;;;9.88;5.20;;;14.30;53.90;;;;;;5052180;28;20033;-64
2023/04/18 08:54:49;;;;;;;10.05;5.20;;;14.40;53.90;;;;;;5055761;28;20032;-64
2023/04/18 08:57:17;;;;;;;9.82;4.85;;;14.40;53.90;;;;;;5055239;28;20035;-64
2023/04/18 08:59:44;;;;;;;10.27;5.28;;;14.30;54.00;;;;;;5051625;28;20034;-64
2023/04/18 09:02:14;;;;;;;9.02;4.82;;;14.20;54.30;;;;;;5053599;28;20103;-63
2023/04/18 09:04:47;;;;;;;9.55;4.95;;;14.20;54.60;;;;;;5056476;28;20060;-63
2023/04/18 09:07:14;;;;;;;8.88;5.03;;;14.10;54.70;;;;;;5056337;28;20438;-63
2023/04/18 09:09:44;;;;;;;9.32;5.13;;;14.00;54.80;;;;;;5056063;28;20059;-63
2023/04/18 09:12:13;;;;;;;8.20;4.43;;;14.00;54.90;;;;;;5039886;28;20033;-63
2023/04/18 09:14:44;;;;;;;8.60;4.95;;;14.00;55.10;;;;;;5054909;28;20044;-63
2023/04/18 09:17:36;;;;;;;9.10;5.18;;;14.00;55.20;;;;;;5044934;28;20092;-63
2023/04/18 09:20:08;;;;;;;7.45;4.03;;;14.00;55.20;;;;;;5029145;28;20032;-63
2023/04/18 09:22:49;;;;;;;8.10;4.63;;;13.90;55.20;;;;;;5030036;28;20072;-63
2023/04/18 09:25:34;;;;;;;8.60;5.10;;;13.90;55.30;;;;;;5028291;28;20068;-63
2023/04/18 09:28:05;;;;;;;8.95;4.35;;;13.90;55.40;;;;;;5028884;28;20037;-63
2023/04/18 09:30:39;;;;;;;9.20;4.22;;;14.00;55.40;;;;;;5027587;28;20032;-64
2023/04/18 09:33:08;;;;;;;8.35;4.53;;;14.10;55.30;;;;;;5042940;28;20021;-64
2023/04/18 09:35:35;;;;;;;8.40;4.35;;;14.10;55.20;;;;;;5054498;28;20021;-64
2023/04/18 09:38:01;;;;;;;8.48;4.45;;;14.20;55.20;;;;;;5055607;28;20115;-64
2023/04/18 09:40:27;;;;;;;9.00;4.80;;;14.20;55.20;;;;;;5055606;28;20418;-64
2023/04/18 09:42:54;;;;;;;8.73;4.40;;;14.20;55.20;;;;;;5038955;28;20108;-64
2023/04/18 09:45:21;;;;;;;8.82;4.60;;;14.30;55.20;;;;;;5055335;28;20053;-64
2023/04/18 09:47:47;;;;;;;9.18;4.70;;;14.40;55.10;;;;;;5054252;28;20029;-64
2023/04/18 09:50:15;;;;;;;8.75;5.05;;;14.40;55.00;;;;;;5054331;28;20032;-64
2023/04/18 09:52:43;;;;;;;8.88;4.20;;;14.50;54.90;;;;;;5051720;28;20033;-64
2023/04/18 09:55:12;;;;;;;8.65;4.70;;;14.50;54.90;;;;;;5039547;28;20508;-64
2023/04/18 09:57:41;;;;;;;8.25;4.85;;;14.50;54.70;;;;;;5055371;28;20123;-64
2023/04/18 10:00:20;;;;;;;8.10;4.60;;;14.50;54.90;;;;;;5053881;28;20438;-64
2023/04/18 10:03:04;;;;;;;8.05;4.32;;;14.60;55.00;;;;;;5047409;28;20036;-64
2023/04/18 10:05:35;;;;;;;9.00;4.72;;;14.90;54.60;;;;;;5048845;28;20025;-64
2023/04/18 10:08:01;;;;;;;9.25;4.68;;;15.00;54.40;;;;;;5054927;28;20020;-63
2023/04/18 10:10:27;;;;;;;8.00;4.20;;;15.00;54.30;;;;;;5054862;28;20116;-63
2023/04/18 10:12:55;;;;;;;8.45;4.68;;;15.20;54.20;;;;;;5050859;28;20124;-64
2023/04/18 10:15:24;;;;;;;8.10;4.57;;;15.20;54.00;;;;;;5055209;28;20108;-65
2023/04/18 10:18:00;;;;;;;8.10;4.05;;;15.30;53.90;;;;;;5054637;28;20029;-64
2023/04/18 10:20:31;;;;;;;7.68;3.97;;;15.50;53.70;;;;;;5055077;28;20091;-63
2023/04/18 10:22:58;;;;;;;8.15;4.10;;;15.80;53.30;;;;;;5048362;28;20442;-64
2023/04/18 10:25:39;;;;;;;8.60;4.68;;;15.80;53.70;;;;;;5031245;28;20022;-64
2023/04/18 10:28:06;;;;;;;9.13;4.55;;;15.90;52.80;;;;;;5027141;28;20053;-63
2023/04/18 10:30:39;;;;;;;8.75;4.35;;;16.00;52.80;;;;;;5026900;28;20029;-63
2023/04/18 10:33:21;;;;;;;7.80;3.97;;;16.00;52.70;;;;;;5021128;28;20977;-65
2023/04/18 10:36:04;;;;;;;8.20;4.43;;;16.00;52.60;;;;;;5011209;28;20041;-64
2023/04/18 10:38:31;;;;;;;9.05;4.60;;;15.90;52.70;;;;;;5027879;28;20029;-64
2023/04/18 10:41:16;;;;;;;8.15;4.47;;;15.80;52.80;;;;;;5010661;28;20417;-64
2023/04/18 10:44:19;;;;;;;9.05;5.15;;;15.60;52.80;;;;;;5024546;28;20030;-64
2023/04/18 10:46:51;;;;;;;8.38;5.00;;;15.30;53.30;;;;;;5038110;28;20049;-64
2023/04/18 10:49:18;;;;;;;8.07;4.63;;;15.10;53.80;;;;;;5010936;28;20021;-64
2023/04/18 10:52:09;;;;;;;8.80;5.10;;;15.00;54.10;;;;;;5028587;28;20021;-65
2023/04/18 10:54:53;;;;;;;9.15;5.57;;;14.90;54.30;;;;;;5027176;28;20030;-64
2023/04/18 10:57:19;;;;;;;9.07;5.35;;;14.80;54.40;;;;;;5028369;28;20029;-63
2023/04/18 10:59:50;;;;;;;10.27;5.03;;;14.80;54.50;;;;;;5027878;28;20029;-64
2023/04/18 11:02:29;;;;;;;8.43;4.95;;;14.70;54.60;;;;;;5029104;28;20051;-64
2023/04/18 11:05:00;;;;;;;8.93;5.63;;;14.70;54.70;;;;;;5026583;28;20350;-64
2023/04/18 11:07:43;;;;;;;8.70;5.55;;;14.70;54.80;;;;;;5025129;28;20056;-65
2023/04/18 11:10:09;;;;;;;8.70;5.30;;;14.70;54.80;;;;;;5025595;28;20083;-64
2023/04/18 11:12:39;;;;;;;10.52;5.65;;;14.70;54.90;;;;;;5028948;28;20037;-64
2023/04/18 11:15:16;;;;;;;9.90;5.35;;;14.60;54.90;;;;;;5026066;28;20037;-65
2023/04/18 11:17:42;;;;;;;10.68;5.95;;;14.50;55.00;;;;;;5025010;28;20357;-65
2023/04/18 11:20:13;;;;;;;9.68;6.05;;;14.50;55.20;;;;;;5030814;28;20029;-65
2023/04/18 11:22:51;;;;;;;8.82;5.63;;;14.50;55.20;;;;;;5028439;28;20186;-64
2023/04/18 11:25:20;;;;;;;10.35;5.70;;;14.50;55.20;;;;;;5028871;28;20117;-64
2023/04/18 11:27:50;;;;;;;10.05;5.65;;;14.50;55.20;;;;;;5023614;28;20021;-63
2023/04/18 11:30:16;;;;;;;9.23;5.68;;;14.50;55.30;;;;;;5025736;28;20087;-63
2023/04/18 11:32:42;;;;;;;9.23;5.70;;;14.50;55.40;;;;;;5007574;28;20037;-63
2023/04/18 11:35:09;;;;;;;10.05;6.03;;;14.50;55.50;;;;;;5024936;28;20041;-63
2023/04/18 11:37:36;;;;;;;10.98;5.88;;;14.40;55.60;;;;;;5027873;28;20033;-63
2023/04/18 11:40:12;;;;;;;10.05;6.05;;;14.40;55.70;;;;;;5026057;28;20025;-63
2023/04/18 11:42:39;;;;;;;9.07;5.72;;;14.40;55.80;;;;;;5030430;28;20029;-65
2023/04/18 11:45:15;;;;;;;9.55;5.72;;;14.50;55.80;;;;;;5031494;28;20107;-67
2023/04/18 11:47:42;;;;;;;9.95;5.93;;;14.60;55.80;;;;;;5030263;28;20104;-67
2023/04/18 11:50:09;;;;;;;10.00;6.40;;;14.60;55.70;;;;;;5030641;28;20405;-67
2023/04/18 11:52:36;;;;;;;11.05;6.85;;;14.70;55.70;;;;;;5025676;28;20072;-67
2023/04/18 11:55:13;;;;;;;10.10;6.40;;;14.60;55.70;;;;;;5029650;28;20021;-67
2023/04/18 11:57:39;;;;;;;11.82;6.80;;;14.70;55.90;;;;;;5030206;28;20040;-67
2023/04/18 12:00:07;;;;;;;10.25;6.57;;;14.70;55.90;;;;;;5032158;28;20040;-67
2023/04/18 12:02:50;;;;;;;9.98;6.00;;;14.70;56.00;;;;;;5029958;28;20121;-67
2023/04/18 12:05:28;;;;;;;11.18;6.43;;;14.80;56.10;;;;;;5029976;28;20106;-67
2023/04/18 12:07:55;;;;;;;9.80;6.10;;;14.80;56.10;;;;;;5030039;28;20048;-67
2023/04/18 12:10:21;;;;;;;11.40;7.00;;;14.80;56.00;;;;;;5029179;28;20156;-67
2023/04/18 12:12:52;;;;;;;10.88;7.15;;;14.90;56.00;;;;;;5030372;28;20525;-67
2023/04/18 12:15:20;;;;;;;10.15;6.55;;;14.90;55.90;;;;;;5028767;28;20025;-67
2023/04/18 12:17:47;;;;;;;11.18;7.20;;;14.90;55.90;;;;;;5032204;28;20036;-67
2023/04/18 12:20:14;;;;;;;11.38;6.88;;;14.90;56.00;;;;;;5031639;28;20033;-67
2023/04/18 12:22:48;;;;;;;11.23;7.28;;;15.00;56.00;;;;;;5032373;28;20061;-67
2023/04/18 12:25:23;;;;;;;11.13;7.30;;;15.00;56.50;;;;;;5011352;28;20118;-67
2023/04/18 12:27:55;;;;;;;11.15;7.22;;;15.10;56.00;;;;;;5028141;28;20030;-67
2023/04/18 12:30:31;;;;;;;12.57;7.90;;;15.30;55.80;;;;;;5026565;28;20443;-67
2023/04/18 12:33:00;;;;;;;13.55;8.00;;;15.40;55.50;;;;;;5025748;28;20048;-67
2023/04/18 12:35:26;;;;;;;13.98;7.88;;;15.60;55.40;;;;;;5030386;28;20068;-67
2023/04/18 12:37:54;;;;;;;11.45;7.45;;;15.70;55.30;;;;;;5025337;28;20029;-68
2023/04/18 12:40:21;;;;;;;13.23;8.32;;;15.80;55.10;;;;;;5026610;28;20029;-67
2023/04/18 12:42:49;;;;;;;11.57;7.80;;;15.80;55.10;;;;;;5027105;28;21638;-66
2023/04/18 12:45:16;;;;;;;12.45;8.38;;;15.80;55.00;;;;;;5031510;28;20451;-65
2023/04/18 12:47:45;;;;;;;12.10;8.32;;;15.80;55.10;;;;;;5029724;28;20056;-65